»·PEaware :: NGF6972 L73-KCVH

NGF6972 :: L73-KCVH

FLIGHT INFORMATION

Flight Status: Arrived
Operator: Unknown
More flights by this operator :: More flights under this callsign
Pilot: Justin A. (23118)
Aircraft: Unknown
(SF50)
More flights by this aircraft type
Origin: L73 Poso-Kern Co
United States
Destination: KCVH Hollister Mun
United States
More flights between these airports :: More routes between these airports
Route: + EHF V248 AVE V137 ROM V485 ULENY
File this flight plan on PilotEdge
Remarks:
Altitude:
(Current/Filed)
14,000ft
Speed:
(Current/Filed)
250kts
Departed: 14-Jan-20 10:39 PM
Arrived: 14-Jan-20 11:24 PM
Distance/Time
Traveled:
135nm/0:45
Distance/Time
To Go:
Arrived

Flight Plot

Page will automatically refresh every two minutes.

Flight plan parsing failed; only flown route is shown


Map Options




Map Legend


Flown Route
Filed Route
Departure Airport
Arrival Airport
Navaid (VOR, NDB)
Fix

Horizontal Profiles

Position Reports

Time Latitude Longitude Heading Altitude Ground
Speed
14-Jan-20 22:27 35.596531 -119.128651 248 638ft 0kts
14-Jan-20 22:28 35.596531 -119.128651 248 638ft 0kts
14-Jan-20 22:29 35.596531 -119.128651 248 638ft 0kts
14-Jan-20 22:30 35.596531 -119.128651 248 638ft 0kts
14-Jan-20 22:31 35.596531 -119.128651 248 638ft 0kts
14-Jan-20 22:32 35.596531 -119.128651 248 638ft 0kts
14-Jan-20 22:33 35.596531 -119.128651 248 638ft 0kts
14-Jan-20 22:34 35.596531 -119.128651 248 638ft 0kts
14-Jan-20 22:35 35.596531 -119.128651 248 638ft 0kts
14-Jan-20 22:36 35.596269 -119.128791 182 638ft 13kts
14-Jan-20 22:37 35.592781 -119.128740 174 638ft 0kts
14-Jan-20 22:38 35.594428 -119.128185 0 638ft 66kts
14-Jan-20 22:39 35.610747 -119.108754 157 2257ft 146kts
14-Jan-20 22:40 35.562019 -119.104888 176 3112ft 212kts
14-Jan-20 22:41 35.496665 -119.105835 217 4297ft 262kts
14-Jan-20 22:42 35.500497 -119.185262 282 6752ft 262kts
14-Jan-20 22:43 35.517313 -119.272045 283 9149ft 262kts
14-Jan-20 22:44 35.533252 -119.357545 283 11550ft 250kts
14-Jan-20 22:45 35.548176 -119.437568 284 13923ft 233kts
14-Jan-20 22:46 35.563329 -119.519867 283 13998ft 277kts
14-Jan-20 22:47 35.579888 -119.609987 283 13991ft 243kts
14-Jan-20 22:48 35.593836 -119.686073 282 14001ft 219kts
14-Jan-20 22:49 35.606845 -119.757258 282 14002ft 211kts
14-Jan-20 22:50 35.619835 -119.828621 282 13996ft 216kts
14-Jan-20 22:51 35.632981 -119.901120 282 13990ft 218kts
14-Jan-20 22:52 35.646517 -119.973854 290 13979ft 219kts
14-Jan-20 22:53 35.685713 -120.031598 307 13981ft 221kts
14-Jan-20 22:54 35.726609 -120.088424 308 13985ft 221kts
14-Jan-20 22:55 35.767459 -120.144931 308 13986ft 221kts
14-Jan-20 22:56 35.808419 -120.201658 308 13983ft 221kts
14-Jan-20 22:57 35.849379 -120.258496 308 13979ft 221kts
14-Jan-20 22:58 35.890150 -120.315009 307 13979ft 221kts
14-Jan-20 22:59 35.930702 -120.371504 309 13993ft 218kts
14-Jan-20 23:00 35.970593 -120.427154 308 14481ft 225kts
14-Jan-20 23:01 36.014372 -120.488341 307 15439ft 241kts
14-Jan-20 23:02 36.056590 -120.547379 307 15985ft 228kts
14-Jan-20 23:03 36.099355 -120.607335 307 15984ft 234kts
14-Jan-20 23:04 36.142894 -120.666970 315 15992ft 240kts
14-Jan-20 23:05 36.195700 -120.718194 316 15994ft 241kts
14-Jan-20 23:06 36.248614 -120.769352 316 15993ft 242kts
14-Jan-20 23:07 36.302002 -120.821033 316 15992ft 242kts
14-Jan-20 23:08 36.355149 -120.872530 316 15999ft 241kts
14-Jan-20 23:09 36.407826 -120.923687 316 16013ft 241kts
14-Jan-20 23:10 36.460779 -120.975073 316 16028ft 241kts
14-Jan-20 23:11 36.514968 -121.028050 317 15210ft 267kts
14-Jan-20 23:12 36.572355 -121.084139 317 13215ft 243kts
14-Jan-20 23:13 36.623596 -121.134140 319 11194ft 232kts
14-Jan-20 23:14 36.674409 -121.183970 321 9184ft 236kts
14-Jan-20 23:15 36.726242 -121.234849 322 7178ft 239kts
14-Jan-20 23:16 36.776675 -121.284454 323 6030ft 211kts
14-Jan-20 23:17 36.824561 -121.323584 332 5146ft 215kts
14-Jan-20 23:18 36.878215 -121.359159 322 3734ft 220kts
14-Jan-20 23:19 36.912282 -121.417183 312 2029ft 185kts
14-Jan-20 23:20 36.948441 -121.438223 286 2034ft 135kts
14-Jan-20 23:21 36.921581 -121.442494 124 1011ft 147kts
14-Jan-20 23:22 36.898462 -121.415137 141 216ft 76kts
14-Jan-20 23:23 36.891701 -121.407246 141 229ft 16kts
14-Jan-20 23:24 36.889212 -121.403197 142 234ft 14kts
14-Jan-20 23:25 36.888595 -121.403394 231 234ft 0kts
14-Jan-20 23:26 36.888595 -121.403394 231 234ft 0kts
14-Jan-20 23:27 36.888595 -121.403394 231 234ft 0kts
14-Jan-20 23:28 36.888595 -121.403394 231 234ft 0kts
14-Jan-20 23:29 36.888595 -121.403394 231 234ft 0kts
14-Jan-20 23:30 36.888595 -121.403394 231 234ft 0kts
14-Jan-20 23:31 36.888595 -121.403394 231 234ft 0kts
14-Jan-20 23:32 36.888595 -121.403394 231 234ft 0kts
14-Jan-20 23:33 36.888595 -121.403394 231 234ft 0kts
14-Jan-20 23:34 36.888595 -121.403394 231 234ft 0kts
14-Jan-20 23:35 36.888595 -121.403394 231 234ft 0kts
14-Jan-20 23:36 36.888595 -121.403394 231 234ft 0kts
14-Jan-20 23:37 36.888595 -121.403394 231 234ft 0kts

Navigation Log

Ident Type
Flight plan parsing failed, navigation log unavailable